createdAt,value
2018-09-13T00:00:52.310Z,7.03
2018-09-13T00:03:24.873Z,7.37
2018-09-13T00:05:55.426Z,7.50
2018-09-13T00:08:25.823Z,7.17
2018-09-13T00:10:55.945Z,7.00
2018-09-13T00:13:25.876Z,6.87
2018-09-13T00:15:55.565Z,6.83
2018-09-13T00:18:25.257Z,6.87
2018-09-13T00:20:54.973Z,6.67
2018-09-13T00:23:24.581Z,7.70
2018-09-13T00:25:54.488Z,6.43
2018-09-13T00:28:24.052Z,6.83
2018-09-13T00:30:54.191Z,8.30
2018-09-13T00:33:26.853Z,7.10
2018-09-13T00:35:56.544Z,7.70
2018-09-13T00:38:26.161Z,7.53
2018-09-13T00:40:56.552Z,7.50
2018-09-13T00:43:26.777Z,7.10
2018-09-13T00:45:56.737Z,7.60
2018-09-13T00:48:28.090Z,7.13
2018-09-13T00:50:57.533Z,6.83
2018-09-13T00:53:27.706Z,7.23
2018-09-13T00:55:58.415Z,7.63
2018-09-13T00:58:28.434Z,7.63
2018-09-13T01:00:57.945Z,7.33
2018-09-13T01:03:28.262Z,7.57
2018-09-13T01:05:58.444Z,8.17
2018-09-13T01:08:28.904Z,8.00
2018-09-13T01:10:59.359Z,7.70
2018-09-13T01:13:29.714Z,8.00
2018-09-13T01:15:59.865Z,7.80
2018-09-13T01:18:29.648Z,8.00
2018-09-13T01:21:01.509Z,8.53
2018-09-13T01:23:32.662Z,8.40
2018-09-13T01:26:02.741Z,7.83
2018-09-13T01:28:32.291Z,8.40
2018-09-13T01:31:02.335Z,8.70
2018-09-13T01:33:33.073Z,8.90
2018-09-13T01:36:03.020Z,7.60
2018-09-13T01:38:32.903Z,7.50
2018-09-13T01:41:03.155Z,7.80
2018-09-13T01:43:32.663Z,8.23
2018-09-13T01:46:02.448Z,7.93
2018-09-13T01:48:32.098Z,10.00
2018-09-13T01:51:01.748Z,9.43
2018-09-13T01:53:31.550Z,9.97
2018-09-13T01:56:08.213Z,10.70
2018-09-13T01:58:38.063Z,9.27
2018-09-13T02:01:08.364Z,9.37
2018-09-13T02:03:39.477Z,9.43
2018-09-13T02:06:10.620Z,9.87
2018-09-13T02:08:40.864Z,10.10
2018-09-13T02:11:12.450Z,9.10
2018-09-13T02:13:42.881Z,9.30
2018-09-13T02:16:14.511Z,11.70
2018-09-13T02:18:44.986Z,10.80
2018-09-13T02:21:14.691Z,8.87
2018-09-13T02:23:45.445Z,9.53
2018-09-13T02:26:16.585Z,9.57
2018-09-13T02:28:46.296Z,9.17
2018-09-13T02:31:16.553Z,9.37
2018-09-13T02:33:47.957Z,9.40
2018-09-13T02:36:17.697Z,9.70
2018-09-13T02:38:49.952Z,9.30
2018-09-13T02:41:20.211Z,9.30
2018-09-13T02:43:50.748Z,10.80
2018-09-13T02:46:20.798Z,9.50
2018-09-13T02:48:57.083Z,8.97
2018-09-13T02:51:27.523Z,9.77
2018-09-13T02:53:59.822Z,10.30
2018-09-13T02:56:29.817Z,8.43
2018-09-13T02:59:00.852Z,10.17
2018-09-13T03:01:31.069Z,9.67
2018-09-13T03:04:03.210Z,10.27
2018-09-13T03:06:33.629Z,9.53
2018-09-13T03:09:04.516Z,9.17
2018-09-13T03:11:35.287Z,9.67
2018-09-13T03:14:05.161Z,9.70
2018-09-13T03:16:36.047Z,10.07
2018-09-13T03:19:05.630Z,9.93
2018-09-13T03:21:36.061Z,9.90
2018-09-13T03:24:05.961Z,10.03
2018-09-13T03:26:36.300Z,11.17
2018-09-13T03:29:06.018Z,10.67
2018-09-13T03:31:36.110Z,11.33
2018-09-13T03:34:06.056Z,11.57
2018-09-13T03:36:36.295Z,11.30
2018-09-13T03:39:09.068Z,10.67
2018-09-13T03:41:39.082Z,11.10
2018-09-13T03:44:09.176Z,11.13
2018-09-13T03:46:39.772Z,10.70
2018-09-13T03:49:10.931Z,11.07
2018-09-13T03:51:41.541Z,10.60
2018-09-13T03:54:11.455Z,12.50
2018-09-13T03:56:41.080Z,11.20
2018-09-13T03:59:11.345Z,11.60
2018-09-13T04:01:41.057Z,11.60
2018-09-13T04:04:10.959Z,11.40
2018-09-13T04:06:41.428Z,11.47
2018-09-13T04:09:12.508Z,12.93
2018-09-13T04:11:42.106Z,13.30
2018-09-13T04:14:12.549Z,13.30
2018-09-13T04:16:43.219Z,12.97
2018-09-13T04:19:13.304Z,13.43
2018-09-13T04:21:42.882Z,14.60
2018-09-13T04:24:13.309Z,14.33
2018-09-13T04:26:43.557Z,14.30
2018-09-13T04:29:14.833Z,14.43
2018-09-13T04:31:45.069Z,13.70
2018-09-13T04:34:15.973Z,15.30
2018-09-13T04:36:45.521Z,14.70
2018-09-13T04:39:15.181Z,13.43
2018-09-13T04:41:45.044Z,15.30
2018-09-13T04:44:15.175Z,14.70
2018-09-13T04:46:44.628Z,14.30
2018-09-13T04:49:18.170Z,13.70
2018-09-13T04:51:48.046Z,12.50
2018-09-13T04:54:18.110Z,12.40
2018-09-13T04:56:52.596Z,13.23
2018-09-13T04:59:22.422Z,12.93
2018-09-13T05:01:52.024Z,13.77
2018-09-13T05:04:21.584Z,13.73
2018-09-13T05:06:51.796Z,13.53
2018-09-13T05:09:22.170Z,13.80
2018-09-13T05:11:51.851Z,13.63
2018-09-13T05:14:21.994Z,14.30
2018-09-13T05:16:52.310Z,14.40
2018-09-13T05:19:22.111Z,13.07
2018-09-13T05:21:52.308Z,13.33
2018-09-13T05:24:23.025Z,13.40
2018-09-13T05:26:52.778Z,14.20
2018-09-13T05:29:22.408Z,13.50
2018-09-13T05:31:52.548Z,13.07
2018-09-13T05:34:22.628Z,13.70
2018-09-13T05:36:52.129Z,14.30
2018-09-13T05:39:22.882Z,14.67
2018-09-13T05:41:53.196Z,15.40
2018-09-13T05:44:23.653Z,15.60
2018-09-13T05:46:54.464Z,13.77
2018-09-13T05:49:25.358Z,14.13
2018-09-13T05:51:56.361Z,13.50
2018-09-13T05:54:27.706Z,13.73
2018-09-13T05:56:58.257Z,12.87
2018-09-13T05:59:28.560Z,13.20
2018-09-13T06:02:02.461Z,12.77
2018-09-13T06:04:32.747Z,13.30
2018-09-13T06:07:02.395Z,12.80
2018-09-13T06:09:36.502Z,13.67
2018-09-13T06:12:07.353Z,13.83
2018-09-13T06:14:36.853Z,13.50
2018-09-13T06:17:06.698Z,13.90
2018-09-13T06:19:36.392Z,12.73
2018-09-13T06:22:06.609Z,13.70
2018-09-13T06:24:37.726Z,13.90
2018-09-13T06:27:09.723Z,13.87
2018-09-13T06:29:39.660Z,13.90
2018-09-13T06:32:10.101Z,13.20
2018-09-13T06:34:40.828Z,14.40
2018-09-13T06:37:12.078Z,13.00
2018-09-13T06:39:41.748Z,13.20
2018-09-13T06:42:13.047Z,12.33
2018-09-13T06:44:43.756Z,12.07
2018-09-13T06:47:15.313Z,12.47
2018-09-13T06:49:44.857Z,11.33
2018-09-13T06:52:15.257Z,12.00
2018-09-13T06:54:46.776Z,11.83
2018-09-13T06:57:17.394Z,10.83
2018-09-13T06:59:48.299Z,11.83
2018-09-13T07:02:19.440Z,11.83
2018-09-13T07:04:53.872Z,11.90
2018-09-13T07:07:23.740Z,11.53
2018-09-13T07:09:53.577Z,11.77
2018-09-13T07:12:23.377Z,12.70
2018-09-13T07:14:53.145Z,13.73
2018-09-13T07:17:22.805Z,12.43
2018-09-13T07:19:53.639Z,12.53
2018-09-13T07:22:24.100Z,13.03
2018-09-13T07:24:54.638Z,11.30
2018-09-13T07:27:24.945Z,12.80
2018-09-13T07:29:55.461Z,12.50
2018-09-13T07:32:25.047Z,12.30
2018-09-13T07:34:56.391Z,12.30
2018-09-13T07:37:26.387Z,11.37
2018-09-13T07:39:57.159Z,11.77
2018-09-13T07:42:26.835Z,11.37
2018-09-13T07:44:56.626Z,12.77
2018-09-13T07:47:26.316Z,11.77
2018-09-13T07:49:56.834Z,12.17
2018-09-13T07:52:26.914Z,12.07
2018-09-13T07:54:57.257Z,11.33
2018-09-13T07:57:28.961Z,11.77
2018-09-13T08:00:00.214Z,12.90
2018-09-13T08:02:34.750Z,12.77
2018-09-13T08:05:05.714Z,13.37
2018-09-13T08:07:36.108Z,13.40
2018-09-13T08:10:06.920Z,12.47
2018-09-13T08:12:41.211Z,14.20
2018-09-13T08:15:10.650Z,13.40
2018-09-13T08:17:40.094Z,14.07
2018-09-13T08:20:09.885Z,11.67
2018-09-13T08:22:39.631Z,13.03
2018-09-13T08:25:09.416Z,13.40
2018-09-13T08:27:39.193Z,14.50
2018-09-13T08:30:09.013Z,14.83
2018-09-13T08:32:39.597Z,13.90
2018-09-13T08:35:10.146Z,14.07
2018-09-13T08:37:40.401Z,12.90
2018-09-13T08:40:10.914Z,14.47
2018-09-13T08:42:41.357Z,14.60
2018-09-13T08:45:10.994Z,12.40
2018-09-13T08:47:41.246Z,13.40
2018-09-13T08:50:11.811Z,15.27
2018-09-13T08:52:42.442Z,13.90
2018-09-13T08:55:12.277Z,17.23
2018-09-13T08:57:41.991Z,15.03
2018-09-13T09:00:13.061Z,16.80
2018-09-13T09:02:43.646Z,16.20
2018-09-13T09:05:13.413Z,16.40
2018-09-13T09:07:43.589Z,17.60
2018-09-13T09:10:13.505Z,16.03
2018-09-13T09:12:43.324Z,15.07
2018-09-13T09:15:14.393Z,17.07
2018-09-13T09:17:45.156Z,14.73
2018-09-13T09:20:16.122Z,13.30
2018-09-13T09:22:46.675Z,16.70
2018-09-13T09:25:16.871Z,19.30
2018-09-13T09:27:47.294Z,17.60
2018-09-13T09:30:17.730Z,19.20
2018-09-13T09:32:49.581Z,17.10
2018-09-13T09:35:20.569Z,15.13
2018-09-13T09:37:50.207Z,17.03
2018-09-13T09:40:21.955Z,18.13
2018-09-13T09:42:51.540Z,15.53
2018-09-13T09:45:21.820Z,17.17
2018-09-13T09:47:51.756Z,17.00
2018-09-13T09:50:21.539Z,13.50
2018-09-13T09:52:51.211Z,17.47
2018-09-13T09:55:23.183Z,16.90
2018-09-13T09:57:53.458Z,15.53
2018-09-13T10:01:26.311Z,15.70
2018-09-13T10:03:58.119Z,17.67
2018-09-13T10:06:27.893Z,15.10
2018-09-13T10:08:57.831Z,15.70
2018-09-13T10:11:28.627Z,15.47
2018-09-13T10:13:58.937Z,13.80
2018-09-13T10:16:34.515Z,15.07
2018-09-13T10:19:09.572Z,17.00
2018-09-13T10:21:44.378Z,15.50
2018-09-13T10:24:18.976Z,15.53
2018-09-13T10:26:54.211Z,14.10
2018-09-13T10:29:28.975Z,17.60
2018-09-13T10:32:03.729Z,15.87
2018-09-13T10:34:38.712Z,14.57
2018-09-13T10:37:14.226Z,12.90
2018-09-13T10:39:49.676Z,13.20
2018-09-13T10:42:25.033Z,12.47
2018-09-13T10:44:59.975Z,12.57
2018-09-13T10:47:35.805Z,13.90
2018-09-13T10:50:10.672Z,11.97
2018-09-13T10:52:41.401Z,12.30
2018-09-13T10:55:10.907Z,11.43
2018-09-13T10:57:43.951Z,10.23
2018-09-13T11:00:14.500Z,11.30
2018-09-13T11:02:45.662Z,10.53
2018-09-13T11:05:15.804Z,10.23
2018-09-13T11:07:45.412Z,10.90
2018-09-13T11:10:14.969Z,9.53
2018-09-13T11:12:48.918Z,10.00
2018-09-13T11:15:25.808Z,8.70
2018-09-13T11:17:56.161Z,11.20
2018-09-13T11:20:26.763Z,10.40
2018-09-13T11:22:56.370Z,9.97
2018-09-13T11:25:26.693Z,10.53
2018-09-13T11:27:56.569Z,10.10
2018-09-13T11:30:27.210Z,9.57
2018-09-13T11:32:57.876Z,8.70
2018-09-13T11:35:29.080Z,8.70
2018-09-13T11:37:58.542Z,9.37
2018-09-13T11:40:30.091Z,9.57
2018-09-13T11:43:00.806Z,9.10
2018-09-13T11:45:30.615Z,9.90
2018-09-13T11:48:00.391Z,9.50
2018-09-13T11:50:30.493Z,9.10
2018-09-13T11:53:00.963Z,8.07
2018-09-13T11:55:30.512Z,8.77
2018-09-13T11:58:01.604Z,8.73
2018-09-13T12:00:31.749Z,7.40
2018-09-13T12:03:01.461Z,8.80
2018-09-13T12:05:31.130Z,8.10
2018-09-13T12:08:00.774Z,8.00
2018-09-13T12:10:30.381Z,8.20
2018-09-13T12:13:01.102Z,7.70
2018-09-13T12:15:31.400Z,8.23
2018-09-13T12:18:01.176Z,7.60
2018-09-13T12:20:30.836Z,8.93
2018-09-13T12:23:00.593Z,8.90
2018-09-13T12:25:30.304Z,8.20
2018-09-13T12:27:59.961Z,8.80
2018-09-13T12:30:30.210Z,7.80
2018-09-13T12:32:59.700Z,8.60
2018-09-13T12:35:29.409Z,8.30
2018-09-13T12:37:59.118Z,8.20
2018-09-13T12:40:28.771Z,8.93
2018-09-13T12:42:58.471Z,8.40
2018-09-13T12:45:29.725Z,9.63
2018-09-13T12:48:00.545Z,8.70
2018-09-13T12:50:31.869Z,8.97
2018-09-13T12:53:01.578Z,7.90
2018-09-13T12:55:36.346Z,7.67
2018-09-13T12:58:06.709Z,8.10
2018-09-13T13:00:36.484Z,7.93
2018-09-13T13:03:06.270Z,8.10
2018-09-13T13:05:35.774Z,8.17
2018-09-13T13:08:06.329Z,8.17
2018-09-13T13:10:36.225Z,8.10
2018-09-13T13:13:05.919Z,7.93
2018-09-13T13:15:36.777Z,7.57
2018-09-13T13:18:06.461Z,7.73
2018-09-13T13:20:36.265Z,6.80
2018-09-13T13:23:07.625Z,7.80
2018-09-13T13:25:37.341Z,7.40
2018-09-13T13:28:07.140Z,7.30
2018-09-13T13:30:36.726Z,7.43
2018-09-13T13:33:06.940Z,7.20
2018-09-13T13:35:36.497Z,7.40
2018-09-13T13:38:06.132Z,7.60
2018-09-13T13:40:37.728Z,7.23
2018-09-13T13:43:07.493Z,7.60
2018-09-13T13:45:38.445Z,7.53
2018-09-13T13:48:09.061Z,7.50
2018-09-13T13:50:38.612Z,7.80
2018-09-13T13:53:13.208Z,8.67
2018-09-13T13:55:43.982Z,7.83
2018-09-13T13:58:13.555Z,8.03
2018-09-13T14:00:43.341Z,8.30
2018-09-13T14:03:13.037Z,7.70
2018-09-13T14:05:42.782Z,7.20
2018-09-13T14:08:12.760Z,7.60
2018-09-13T14:10:43.009Z,6.63
2018-09-13T14:13:13.837Z,7.70
2018-09-13T14:15:43.561Z,7.13
2018-09-13T14:18:13.331Z,7.40
2018-09-13T14:20:43.090Z,7.33
2018-09-13T14:23:13.627Z,7.90
2018-09-13T14:25:43.320Z,7.20
2018-09-13T14:28:12.947Z,7.53
2018-09-13T14:30:42.473Z,7.10
2018-09-13T14:33:12.506Z,7.60
2018-09-13T14:35:42.208Z,7.10
2018-09-13T14:38:11.804Z,7.70
2018-09-13T14:40:41.498Z,7.40
2018-09-13T14:43:11.608Z,7.70
2018-09-13T14:45:41.299Z,6.70
2018-09-13T14:48:11.607Z,8.00
2018-09-13T14:50:42.317Z,8.13
2018-09-13T14:53:12.101Z,8.17
2018-09-13T14:55:41.790Z,7.80
2018-09-13T14:58:11.919Z,8.53
2018-09-13T15:00:42.231Z,7.20
2018-09-13T15:03:13.430Z,8.17
2018-09-13T15:05:44.823Z,7.43
2018-09-13T15:08:14.668Z,8.10
2018-09-13T15:10:44.140Z,7.87
2018-09-13T15:13:13.925Z,7.77
2018-09-13T15:15:44.047Z,8.20
2018-09-13T15:18:14.448Z,7.40
2018-09-13T15:20:44.212Z,8.00
2018-09-13T15:23:14.765Z,8.53
2018-09-13T15:25:44.401Z,8.50
2018-09-13T15:28:14.204Z,7.17
2018-09-13T15:30:44.182Z,8.00
2018-09-13T15:33:14.605Z,8.10
2018-09-13T15:35:44.353Z,8.80
2018-09-13T15:38:14.859Z,8.23
2018-09-13T15:40:45.004Z,7.77
2018-09-13T15:43:14.894Z,7.20
2018-09-13T15:45:45.192Z,7.77
2018-09-13T15:48:14.769Z,7.20
2018-09-13T15:50:44.640Z,7.13
2018-09-13T15:53:14.773Z,6.83
2018-09-13T15:55:45.708Z,7.70
2018-09-13T15:58:15.408Z,7.10
2018-09-13T16:00:46.314Z,6.80
2018-09-13T16:03:17.183Z,6.70
2018-09-13T16:05:46.881Z,7.00
2018-09-13T16:08:18.072Z,6.23
2018-09-13T16:10:49.117Z,7.17
2018-09-13T16:13:19.419Z,6.57
2018-09-13T16:15:50.178Z,7.57
2018-09-13T16:18:19.782Z,8.37
2018-09-13T16:20:54.699Z,7.13
2018-09-13T16:23:24.340Z,7.13
2018-09-13T16:25:53.953Z,7.90
2018-09-13T16:28:23.638Z,7.00
2018-09-13T16:30:53.348Z,6.90
2018-09-13T16:33:23.057Z,6.50
2018-09-13T16:35:54.630Z,6.80
2018-09-13T16:38:31.404Z,6.40
2018-09-13T16:41:07.713Z,6.30
2018-09-13T16:43:43.114Z,6.93
2018-09-13T16:46:19.058Z,6.30
2018-09-13T16:48:50.048Z,6.30
2018-09-13T16:51:20.058Z,6.10
2018-09-13T16:53:50.082Z,6.40
2018-09-13T16:56:19.492Z,6.30
2018-09-13T16:58:49.991Z,6.17
2018-09-13T17:01:19.750Z,7.07
2018-09-13T17:03:50.965Z,7.07
2018-09-13T17:06:20.821Z,6.80
2018-09-13T17:08:54.603Z,6.60
2018-09-13T17:11:24.702Z,7.07
2018-09-13T17:13:54.204Z,6.43
2018-09-13T17:16:23.957Z,6.83
2018-09-13T17:18:53.450Z,6.67
2018-09-13T17:21:23.192Z,6.93
2018-09-13T17:23:52.686Z,6.63
2018-09-13T17:26:22.376Z,7.40
2018-09-13T17:28:52.819Z,6.83
2018-09-13T17:31:22.428Z,7.27
2018-09-13T17:33:51.908Z,7.20
2018-09-13T17:36:21.658Z,7.80
2018-09-13T17:38:52.555Z,6.67
2018-09-13T17:41:23.045Z,7.00
2018-09-13T17:44:00.541Z,8.20
2018-09-13T17:46:31.706Z,8.77
2018-09-13T17:49:01.412Z,8.83
2018-09-13T17:51:32.325Z,9.13
2018-09-13T17:54:01.867Z,10.40
2018-09-13T17:56:32.625Z,9.40
2018-09-13T17:59:02.353Z,9.00
2018-09-13T18:01:34.338Z,9.57
2018-09-13T18:04:04.459Z,8.60
2018-09-13T18:06:34.173Z,8.30
2018-09-13T18:09:04.848Z,8.70
2018-09-13T18:11:35.612Z,8.77
2018-09-13T18:14:05.311Z,7.60
2018-09-13T18:16:35.643Z,8.30
2018-09-13T18:19:06.094Z,8.20
2018-09-13T18:21:35.700Z,7.93
2018-09-13T18:24:07.080Z,7.60
2018-09-13T18:26:36.589Z,7.30
2018-09-13T18:29:07.270Z,7.97
2018-09-13T18:31:38.038Z,7.23
2018-09-13T18:34:07.614Z,8.20
2018-09-13T18:36:38.320Z,7.53
2018-09-13T18:39:12.718Z,8.30
2018-09-13T18:41:42.621Z,7.63
2018-09-13T18:44:12.226Z,7.57
2018-09-13T18:46:41.814Z,7.47
2018-09-13T18:49:11.842Z,8.03
2018-09-13T18:51:42.232Z,8.67
2018-09-13T18:54:12.361Z,7.60
2018-09-13T18:56:41.864Z,8.20
2018-09-13T18:59:11.680Z,8.13
2018-09-13T19:01:42.366Z,8.50
2018-09-13T19:04:12.223Z,7.73
2018-09-13T19:06:41.784Z,7.70
2018-09-13T19:09:11.791Z,7.93
2018-09-13T19:11:41.785Z,8.23
2018-09-13T19:14:12.692Z,8.20
2018-09-13T19:16:43.392Z,7.63
2018-09-13T19:19:13.073Z,8.60
2018-09-13T19:21:42.844Z,8.23
2018-09-13T19:24:12.970Z,8.70
2018-09-13T19:26:42.620Z,8.53
2018-09-13T19:29:12.177Z,8.73
2018-09-13T19:31:43.073Z,8.30
2018-09-13T19:34:12.801Z,10.33
2018-09-13T19:36:42.556Z,9.93
2018-09-13T19:39:13.377Z,8.70
2018-09-13T19:41:43.506Z,9.57
2018-09-13T19:44:13.370Z,9.40
2018-09-13T19:46:43.558Z,10.00
2018-09-13T19:49:13.089Z,9.60
2018-09-13T19:51:44.286Z,9.37
2018-09-13T19:54:14.430Z,9.50
2018-09-13T19:56:44.252Z,9.20
2018-09-13T19:59:13.925Z,9.00
2018-09-13T20:01:44.438Z,9.33
2018-09-13T20:04:14.255Z,9.37
2018-09-13T20:06:44.925Z,9.43
2018-09-13T20:09:15.945Z,9.50
2018-09-13T20:11:45.724Z,10.13
2018-09-13T20:14:15.488Z,10.30
2018-09-13T20:16:45.053Z,8.73
2018-09-13T20:19:16.561Z,10.50
2018-09-13T20:21:46.936Z,10.40
2018-09-13T20:24:16.876Z,10.73
2018-09-13T20:26:47.162Z,10.70
2018-09-13T20:29:16.758Z,11.27
2018-09-13T20:31:48.530Z,11.80
2018-09-13T20:34:18.823Z,11.10
2018-09-13T20:36:50.660Z,11.57
2018-09-13T20:39:20.153Z,11.20
2018-09-13T20:41:55.707Z,11.67
2018-09-13T20:44:25.738Z,11.23
2018-09-13T20:46:55.268Z,12.20
2018-09-13T20:49:25.914Z,11.13
2018-09-13T20:51:55.578Z,11.03
2018-09-13T20:54:25.216Z,10.40
2018-09-13T20:56:54.989Z,12.70
2018-09-13T20:59:25.293Z,11.30
2018-09-13T21:01:55.064Z,11.33
2018-09-13T21:04:24.565Z,11.17
2018-09-13T21:06:54.164Z,13.20
2018-09-13T21:09:23.800Z,13.17
2018-09-13T21:11:54.032Z,13.73
2018-09-13T21:14:24.457Z,13.30
2018-09-13T21:16:54.299Z,11.57
2018-09-13T21:19:23.962Z,11.50
2018-09-13T21:21:53.448Z,11.90
2018-09-13T21:24:24.618Z,11.13
2018-09-13T21:26:54.196Z,11.87
2018-09-13T21:29:23.829Z,11.13
2018-09-13T21:31:53.438Z,11.10
2018-09-13T21:34:23.219Z,11.50
2018-09-13T21:36:53.166Z,11.70
2018-09-13T21:39:23.903Z,10.80
2018-09-13T21:41:53.605Z,10.60
2018-09-13T21:44:23.365Z,10.47
2018-09-13T21:46:53.023Z,11.40
2018-09-13T21:49:22.752Z,10.27
2018-09-13T21:51:52.272Z,11.00
2018-09-13T21:54:22.329Z,12.13
2018-09-13T21:56:52.293Z,10.73
2018-09-13T21:59:22.516Z,12.30
2018-09-13T22:01:52.432Z,12.50
2018-09-13T22:04:22.334Z,12.47
2018-09-13T22:06:51.976Z,11.73
2018-09-13T22:09:21.740Z,11.87
2018-09-13T22:11:55.753Z,13.00
2018-09-13T22:14:26.659Z,12.27
2018-09-13T22:16:56.265Z,11.67
2018-09-13T22:19:26.617Z,11.60
2018-09-13T22:21:56.763Z,12.20
2018-09-13T22:24:27.423Z,12.37
2018-09-13T22:26:57.751Z,11.83
2018-09-13T22:29:27.335Z,11.33
2018-09-13T22:31:57.132Z,11.80
2018-09-13T22:34:26.999Z,11.10
2018-09-13T22:36:56.761Z,10.07
2018-09-13T22:39:26.342Z,10.23
2018-09-13T22:41:56.109Z,10.50
2018-09-13T22:44:26.185Z,10.37
2018-09-13T22:46:56.427Z,10.67
2018-09-13T22:49:26.476Z,11.10
2018-09-13T22:51:56.169Z,10.90
2018-09-13T22:54:25.869Z,10.20
2018-09-13T22:56:56.307Z,10.27
2018-09-13T22:59:26.005Z,10.10
2018-09-13T23:01:57.240Z,10.50
2018-09-13T23:04:27.829Z,10.60
2018-09-13T23:06:57.425Z,10.50
2018-09-13T23:09:27.957Z,10.53
2018-09-13T23:11:57.726Z,9.60
2018-09-13T23:14:28.257Z,10.33
2018-09-13T23:16:58.945Z,9.70
2018-09-13T23:19:28.874Z,10.00
2018-09-13T23:21:59.915Z,10.00
2018-09-13T23:24:30.744Z,9.00
2018-09-13T23:27:00.371Z,9.00
2018-09-13T23:29:30.400Z,9.00
2018-09-13T23:31:59.957Z,9.07
2018-09-13T23:34:30.604Z,8.40
2018-09-13T23:37:00.077Z,7.60
2018-09-13T23:39:30.147Z,8.17
2018-09-13T23:41:59.843Z,7.53
2018-09-13T23:44:29.391Z,7.93
2018-09-13T23:46:59.774Z,7.63
2018-09-13T23:49:30.260Z,7.57
2018-09-13T23:51:59.981Z,8.40
2018-09-13T23:54:30.862Z,7.50
2018-09-13T23:57:00.489Z,7.50
2018-09-13T23:59:30.068Z,6.90
